San Acacia, NM (87831)

10:24 PM MDT on September 14, 2014 (GMT -0600)
Community Road | Change Station
CLOSE
Current Station
Personal Weather Station
Location: Polvadera, NM
Elevation: 4645 ft
Nearby Weather Stations

Elev 4645 ft 34.20 °N, 106.91 °W | Updated 15 minutes ago

Clear
Clear
68.8 °F
Feels Like 68.8 °F
N
3.4
Wind Variable Wind from SSE
Gusts 3.4 mph

Today
High -- | Low -- °F
--% Chance of Precip.
Yesterday
High -- | Low -- °F
Precip. -- in
6:50 AM 7:15 PM
Waning Gibbous, 59% visible
Pressure 30.20 in
Visibility 10.0 miles
Clouds Clear
Dew Point 55 °F
Humidity 62%
Rainfall 0.00 in
Snow Depth 1 in , 0 in , 1 in
UV 0 out of 12
Pollen 7.80 out of 12
Air Quality Not available.
Flu Activity Not available.
METAR KONM 150415Z AUTO 18007KT 10SM CLR 20/12 A3020 RMK AO2 T02000124

More Conditions Fewer Conditions

Pressure 30.20 in
Visibility 10.0 miles
Clouds Clear
Dew Point 55 °F
Humidity 62%
Rainfall 0.00 in
Snow Depth 1 in , 0 in , 1 in
UV 0 out of 12
Pollen 7.80 out of 12
Air Quality Not available.
Flu Activity Not available.
METAR KONM 150415Z AUTO 18007KT 10SM CLR 20/12 A3020 RMK AO2 T02000124

More Conditions Fewer Conditions

10-Day Weather Forecast

Almanac

Astronomy

Sep. 14, 2014 Rise Set
Actual Time 6:50 AM MDT 7:15 PM MDT
Civil Twilight 6:24 AM MDT 7:40 PM MDT
Nautical Twilight 5:55 AM MDT 8:10 PM MDT
Astronomical Twilight 5:25 AM MDT 8:40 PM MDT
Moon 11:25 PM MDT (9/14) 12:44 PM MDT (9/14)
Length of Visible Light 13h 15m
Length of Day
12h 25m
Tomorrow will be 2m 5s shorter.
Waning Gibbous, 59% of the Moon is Illuminated
Sep 15
Waning Gibbous
Sep 15
Last Quarter
Sep 24
New
Oct 1
First Quarter
Oct 8
Full

Today's Extremes

State Highs State Lows

Community

WunderPhotos

Upload Photos

1,753,400 photos uploaded!

Nearby

Snow Depth

Station Depth Elevation
Silver Creek Divide 21 in 9000 ft
Quemazon 1 in 9500 ft
Tolby 0 in 10180 ft
Sierra Blanca 1 in 10280 ft
Senorita Divide #2 0 in 8600 ft

Earthquake Activity

City Distance Mag. Time & Date
No recent earthquake activity has been reported nearby.
Minimum magnitude displayed is 2.5.

Coastal Water Temperatures

Place Temperature
No Stations Reporting

Nearby Weather Stations